createdAt,value
2018-07-21T00:00:19.371Z,8.37
2018-07-21T00:02:47.750Z,8.23
2018-07-21T00:05:16.114Z,8.63
2018-07-21T00:07:44.621Z,7.80
2018-07-21T00:10:12.728Z,8.40
2018-07-21T00:12:41.133Z,8.57
2018-07-21T00:15:09.493Z,8.17
2018-07-21T00:17:37.880Z,7.83
2018-07-21T00:20:06.310Z,7.67
2018-07-21T00:22:34.685Z,7.80
2018-07-21T00:25:03.283Z,7.67
2018-07-21T00:27:31.657Z,7.57
2018-07-21T00:30:00.070Z,7.20
2018-07-21T00:32:28.434Z,7.53
2018-07-21T00:34:56.816Z,6.40
2018-07-21T00:37:25.214Z,7.17
2018-07-21T00:39:53.625Z,6.70
2018-07-21T00:42:22.027Z,6.60
2018-07-21T00:44:50.416Z,6.70
2018-07-21T00:47:18.788Z,7.30
2018-07-21T00:49:47.184Z,7.00
2018-07-21T00:52:15.605Z,7.77
2018-07-21T00:54:43.948Z,6.97
2018-07-21T00:57:12.364Z,7.40
2018-07-21T00:59:40.676Z,7.43
2018-07-21T01:02:09.128Z,7.00
2018-07-21T01:04:37.549Z,7.40
2018-07-21T01:07:06.028Z,7.00
2018-07-21T01:09:34.428Z,7.07
2018-07-21T01:12:02.789Z,7.60
2018-07-21T01:14:31.225Z,7.77
2018-07-21T01:16:59.597Z,7.40
2018-07-21T01:19:27.961Z,7.43
2018-07-21T01:21:56.348Z,7.43
2018-07-21T01:24:24.702Z,8.20
2018-07-21T01:26:53.100Z,7.70
2018-07-21T01:29:21.559Z,8.20
2018-07-21T01:31:49.927Z,8.20
2018-07-21T01:34:18.338Z,7.47
2018-07-21T01:36:46.721Z,7.60
2018-07-21T01:39:15.108Z,7.77
2018-07-21T01:41:43.518Z,8.00
2018-07-21T01:44:11.901Z,7.93
2018-07-21T01:46:40.360Z,7.83
2018-07-21T01:49:08.823Z,8.33
2018-07-21T01:51:37.165Z,7.90
2018-07-21T01:54:05.588Z,7.67
2018-07-21T01:56:34.006Z,8.43
2018-07-21T01:59:02.369Z,7.93
2018-07-21T02:01:30.733Z,7.90
2018-07-21T02:03:59.150Z,8.27
2018-07-21T02:06:27.560Z,8.40
2018-07-21T02:08:55.914Z,8.40
2018-07-21T02:11:24.277Z,8.57
2018-07-21T02:13:52.639Z,8.47
2018-07-21T02:16:21.069Z,9.70
2018-07-21T02:18:49.436Z,9.53
2018-07-21T02:21:17.849Z,9.00
2018-07-21T02:23:46.248Z,9.07
2018-07-21T02:26:14.682Z,10.30
2018-07-21T02:28:43.048Z,9.07
2018-07-21T02:31:11.457Z,9.23
2018-07-21T02:33:39.804Z,9.77
2018-07-21T02:36:08.200Z,9.43
2018-07-21T02:38:36.621Z,9.30
2018-07-21T02:41:05.092Z,9.63
2018-07-21T02:43:33.425Z,9.50
2018-07-21T02:46:01.806Z,9.10
2018-07-21T02:48:30.198Z,9.60
2018-07-21T02:50:58.608Z,9.93
2018-07-21T02:53:27.032Z,9.00
2018-07-21T02:55:55.384Z,8.90
2018-07-21T02:58:23.784Z,10.00
2018-07-21T03:00:52.170Z,9.37
2018-07-21T03:03:20.631Z,9.37
2018-07-21T03:05:49.045Z,9.73
2018-07-21T03:08:17.441Z,8.90
2018-07-21T03:10:45.833Z,8.47
2018-07-21T03:13:14.228Z,8.87
2018-07-21T03:15:45.584Z,8.53
2018-07-21T03:18:13.985Z,8.77
2018-07-21T03:20:42.374Z,8.80
2018-07-21T03:23:10.570Z,7.47
2018-07-21T03:25:38.969Z,7.80
2018-07-21T03:28:07.332Z,7.90
2018-07-21T03:30:35.773Z,8.23
2018-07-21T03:33:04.252Z,8.50
2018-07-21T03:35:32.677Z,8.27
2018-07-21T03:38:01.127Z,8.10
2018-07-21T03:40:29.712Z,7.33
2018-07-21T03:42:58.071Z,8.20
2018-07-21T03:45:26.710Z,7.47
2018-07-21T03:47:55.117Z,8.80
2018-07-21T03:50:23.500Z,8.63
2018-07-21T03:52:51.897Z,8.43
2018-07-21T03:55:20.382Z,8.57
2018-07-21T03:57:48.732Z,8.77
2018-07-21T04:00:17.184Z,7.77
2018-07-21T04:02:45.629Z,8.37
2018-07-21T04:05:14.054Z,8.20
2018-07-21T04:07:42.448Z,8.00
2018-07-21T04:10:10.865Z,7.97
2018-07-21T04:12:39.230Z,8.80
2018-07-21T04:15:07.626Z,9.20
2018-07-21T04:17:35.981Z,8.00
2018-07-21T04:20:04.481Z,8.60
2018-07-21T04:22:32.924Z,9.10
2018-07-21T04:25:01.288Z,9.10
2018-07-21T04:27:29.687Z,9.17
2018-07-21T04:29:58.073Z,9.67
2018-07-21T04:32:26.452Z,9.40
2018-07-21T04:34:54.811Z,8.70
2018-07-21T04:37:23.188Z,8.40
2018-07-21T04:39:51.527Z,8.73
2018-07-21T04:42:19.882Z,8.57
2018-07-21T04:44:48.244Z,8.27
2018-07-21T04:47:16.573Z,8.73
2018-07-21T04:49:44.905Z,9.40
2018-07-21T04:52:13.275Z,9.03
2018-07-21T04:54:41.634Z,8.67
2018-07-21T04:57:10.005Z,9.07
2018-07-21T04:59:38.339Z,9.00
2018-07-21T05:02:07.005Z,9.50
2018-07-21T05:04:35.393Z,9.37
2018-07-21T05:07:03.767Z,9.40
2018-07-21T05:09:32.128Z,9.20
2018-07-21T05:12:00.532Z,8.30
2018-07-21T05:14:28.969Z,8.23
2018-07-21T05:16:57.355Z,8.30
2018-07-21T05:19:25.748Z,7.80
2018-07-21T05:21:54.148Z,8.40
2018-07-21T05:24:22.488Z,6.70
2018-07-21T05:26:50.924Z,6.83
2018-07-21T05:29:19.313Z,7.43
2018-07-21T05:31:47.695Z,6.67
2018-07-21T05:34:16.145Z,6.80
2018-07-21T05:36:44.478Z,6.33
2018-07-21T05:39:12.935Z,7.80
2018-07-21T05:41:41.875Z,6.97
2018-07-21T05:44:10.365Z,6.60
2018-07-21T05:46:38.790Z,7.00
2018-07-21T05:49:07.508Z,6.50
2018-07-21T05:51:35.935Z,6.60
2018-07-21T05:54:04.342Z,6.35
2018-07-21T05:56:32.742Z,6.60
2018-07-21T05:59:01.128Z,6.63
2018-07-21T06:01:29.489Z,7.07
2018-07-21T06:03:57.934Z,7.43
2018-07-21T06:06:26.328Z,7.80
2018-07-21T06:08:54.712Z,7.97
2018-07-21T06:11:23.173Z,8.13
2018-07-21T06:13:51.573Z,8.53
2018-07-21T06:16:20.136Z,7.90
2018-07-21T06:18:48.639Z,8.57
2018-07-21T06:21:16.973Z,9.70
2018-07-21T06:23:45.337Z,9.13
2018-07-21T06:26:13.749Z,9.00
2018-07-21T06:28:42.148Z,9.73
2018-07-21T06:31:10.572Z,9.23
2018-07-21T06:33:38.980Z,8.60
2018-07-21T06:36:07.352Z,8.07
2018-07-21T06:38:35.788Z,8.80
2018-07-21T06:41:04.180Z,8.20
2018-07-21T06:43:32.553Z,8.60
2018-07-21T06:46:00.948Z,9.40
2018-07-21T06:48:29.368Z,8.10
2018-07-21T06:50:57.724Z,8.50
2018-07-21T06:53:26.144Z,8.70
2018-07-21T06:55:54.529Z,8.10
2018-07-21T06:58:22.939Z,8.57
2018-07-21T07:00:51.321Z,8.43
2018-07-21T07:03:19.725Z,7.97
2018-07-21T07:05:48.160Z,8.53
2018-07-21T07:08:16.520Z,9.73
2018-07-21T07:10:45.066Z,8.67
2018-07-21T07:13:13.465Z,8.23
2018-07-21T07:15:41.584Z,7.97
2018-07-21T07:18:10.018Z,6.70
2018-07-21T07:20:38.394Z,7.93
2018-07-21T07:23:06.993Z,7.60
2018-07-21T07:25:35.433Z,7.40
2018-07-21T07:28:03.852Z,7.40
2018-07-21T07:30:32.256Z,6.40
2018-07-21T07:33:00.718Z,7.03
2018-07-21T07:35:29.092Z,6.30
2018-07-21T07:37:57.509Z,5.57
2018-07-21T07:40:25.977Z,6.53
2018-07-21T07:42:54.369Z,6.33
2018-07-21T07:45:22.733Z,6.27
2018-07-21T07:47:51.127Z,6.07
2018-07-21T07:50:19.503Z,6.63
2018-07-21T07:52:47.954Z,6.20
2018-07-21T07:55:16.332Z,6.57
2018-07-21T07:57:44.662Z,5.63
2018-07-21T08:00:13.122Z,6.20
2018-07-21T08:02:41.566Z,6.00
2018-07-21T08:05:09.965Z,5.90
2018-07-21T08:07:38.366Z,6.40
2018-07-21T08:10:06.775Z,6.13
2018-07-21T08:12:35.111Z,6.77
2018-07-21T08:15:03.577Z,5.90
2018-07-21T08:17:31.955Z,6.30
2018-07-21T08:20:00.340Z,6.73
2018-07-21T08:22:28.688Z,6.70
2018-07-21T08:24:57.093Z,8.23
2018-07-21T08:27:25.480Z,6.80
2018-07-21T08:29:53.904Z,7.63
2018-07-21T08:32:22.338Z,8.73
2018-07-21T08:34:50.736Z,8.40
2018-07-21T08:37:19.129Z,8.60
2018-07-21T08:39:47.512Z,8.43
2018-07-21T08:42:15.870Z,8.40
2018-07-21T08:44:44.336Z,8.53
2018-07-21T08:47:12.646Z,8.30
2018-07-21T08:49:41.177Z,8.77
2018-07-21T08:52:09.527Z,8.03
2018-07-21T08:54:37.907Z,8.70
2018-07-21T08:57:07.147Z,9.10
2018-07-21T08:59:49.418Z,9.17
2018-07-21T09:06:54.248Z,9.37
2018-07-21T09:09:22.777Z,9.47
2018-07-21T09:11:51.238Z,9.07
2018-07-21T09:14:19.674Z,8.93
2018-07-21T09:16:48.058Z,8.90
2018-07-21T09:19:16.413Z,9.10
2018-07-21T09:21:44.870Z,9.40
2018-07-21T09:24:13.252Z,8.00
2018-07-21T09:26:41.640Z,8.80
2018-07-21T09:29:10.058Z,7.97
2018-07-21T09:31:38.528Z,8.17
2018-07-21T09:34:06.955Z,8.97
2018-07-21T09:36:35.322Z,9.10
2018-07-21T09:39:03.929Z,8.20
2018-07-21T09:41:32.352Z,8.00
2018-07-21T09:44:00.764Z,8.27
2018-07-21T09:46:29.147Z,9.10
2018-07-21T09:48:57.517Z,8.60
2018-07-21T09:51:25.924Z,9.57
2018-07-21T09:53:53.976Z,9.50
2018-07-21T09:56:22.369Z,8.87
2018-07-21T09:58:50.795Z,9.27
2018-07-21T10:01:19.189Z,9.87
2018-07-21T10:03:47.604Z,8.90
2018-07-21T10:06:16.032Z,9.50
2018-07-21T10:08:44.548Z,9.60
2018-07-21T10:11:13.009Z,10.50
2018-07-21T10:13:41.467Z,9.20
2018-07-21T10:16:09.846Z,8.93
2018-07-21T10:18:38.290Z,9.70
2018-07-21T10:21:06.718Z,10.23
2018-07-21T10:23:35.165Z,9.53
2018-07-21T10:26:09.072Z,9.23
2018-07-21T10:28:42.915Z,9.27
2018-07-21T10:31:11.421Z,8.13
2018-07-21T10:33:39.901Z,8.43
2018-07-21T10:36:08.260Z,9.40
2018-07-21T10:38:36.713Z,9.30
2018-07-21T10:41:05.094Z,9.30
2018-07-21T10:43:33.493Z,8.93
2018-07-21T10:46:02.009Z,9.80
2018-07-21T10:48:30.414Z,10.68
2018-07-21T10:50:59.380Z,10.63
2018-07-21T10:53:27.800Z,10.50
2018-07-21T10:55:56.210Z,10.07
2018-07-21T10:58:24.695Z,8.70
2018-07-21T11:00:53.190Z,11.20
2018-07-21T11:03:21.555Z,10.37
2018-07-21T11:05:50.034Z,10.50
2018-07-21T11:08:18.431Z,10.10
2018-07-21T11:10:46.809Z,11.43
2018-07-21T11:13:15.284Z,10.47
2018-07-21T11:15:43.749Z,9.60
2018-07-21T11:18:12.258Z,9.17
2018-07-21T11:20:40.652Z,10.40
2018-07-21T11:23:09.004Z,8.43
2018-07-21T11:25:37.412Z,10.30
2018-07-21T11:28:05.919Z,8.97
2018-07-21T11:30:34.314Z,8.30
2018-07-21T11:33:02.717Z,8.83
2018-07-21T11:35:31.266Z,8.53
2018-07-21T11:37:59.564Z,10.10
2018-07-21T11:40:27.973Z,8.10
2018-07-21T11:42:56.413Z,19.60
2018-07-21T11:45:24.828Z,9.07
2018-07-21T11:47:53.189Z,8.40
2018-07-21T11:50:21.644Z,8.40
2018-07-21T11:52:50.072Z,7.87
2018-07-21T11:55:18.502Z,8.50
2018-07-21T11:57:46.932Z,8.40
2018-07-21T12:00:15.323Z,8.20
2018-07-21T12:02:43.766Z,8.47
2018-07-21T12:05:12.154Z,7.60
2018-07-21T12:07:40.541Z,7.50
2018-07-21T12:10:08.989Z,7.00
2018-07-21T12:12:37.398Z,7.20
2018-07-21T12:15:05.968Z,7.30
2018-07-21T12:17:34.366Z,6.43
2018-07-21T12:20:02.835Z,6.67
2018-07-21T12:22:31.209Z,6.73
2018-07-21T12:24:59.547Z,6.10
2018-07-21T12:27:27.964Z,6.53
2018-07-21T12:29:56.342Z,6.03
2018-07-21T12:32:24.748Z,5.37
2018-07-21T12:34:53.177Z,5.93
2018-07-21T12:37:21.641Z,5.87
2018-07-21T12:39:50.036Z,5.40
2018-07-21T12:42:18.433Z,5.60
2018-07-21T12:44:46.832Z,6.07
2018-07-21T12:47:15.194Z,5.80
2018-07-21T12:49:43.580Z,5.90
2018-07-21T12:52:11.946Z,6.00
2018-07-21T12:54:40.336Z,6.10
2018-07-21T12:57:08.753Z,6.10
2018-07-21T12:59:37.169Z,5.90
2018-07-21T13:02:05.613Z,5.63
2018-07-21T13:04:34.028Z,5.43
2018-07-21T13:07:02.413Z,5.20
2018-07-21T13:09:30.826Z,6.20
2018-07-21T13:11:59.245Z,5.87
2018-07-21T13:14:27.637Z,5.93
2018-07-21T13:16:56.030Z,5.40
2018-07-21T13:19:24.444Z,5.63
2018-07-21T13:21:52.872Z,5.23
2018-07-21T13:24:21.241Z,5.20
2018-07-21T13:26:49.710Z,5.50
2018-07-21T13:29:18.112Z,5.60
2018-07-21T13:31:46.614Z,5.80
2018-07-21T13:34:14.929Z,5.80
2018-07-21T13:36:43.400Z,6.13
2018-07-21T13:39:12.845Z,5.90
2018-07-21T13:41:41.250Z,5.83
2018-07-21T13:44:09.826Z,6.17
2018-07-21T13:46:38.209Z,5.93
2018-07-21T13:49:06.645Z,5.90
2018-07-21T13:51:35.077Z,6.87
2018-07-21T13:54:03.536Z,6.53
2018-07-21T13:56:32.092Z,6.57
2018-07-21T13:59:00.945Z,6.53
2018-07-21T14:01:29.359Z,6.37
2018-07-21T14:03:57.854Z,6.50
2018-07-21T14:06:26.296Z,6.53
2018-07-21T14:08:54.704Z,6.47
2018-07-21T14:11:23.200Z,6.30
2018-07-21T14:13:51.666Z,6.57
2018-07-21T14:16:20.068Z,6.40
2018-07-21T14:18:48.479Z,6.17
2018-07-21T14:21:16.977Z,6.73
2018-07-21T14:23:45.348Z,7.43
2018-07-21T14:26:13.871Z,8.30
2018-07-21T14:28:42.244Z,8.27
2018-07-21T14:31:10.662Z,8.63
2018-07-21T14:33:39.107Z,8.60
2018-07-21T14:36:07.703Z,9.60
2018-07-21T14:38:35.973Z,9.73
2018-07-21T14:41:04.468Z,9.48
2018-07-21T14:43:32.931Z,8.45
2018-07-21T14:46:01.413Z,7.60
2018-07-21T14:48:29.799Z,5.70
2018-07-21T14:50:58.257Z,4.83
2018-07-21T14:53:26.642Z,5.90
2018-07-21T14:55:55.073Z,7.50
2018-07-21T14:58:23.762Z,7.00
2018-07-21T15:00:52.847Z,8.33
2018-07-21T15:03:21.629Z,8.67
2018-07-21T15:05:49.819Z,8.67
2018-07-21T15:08:18.024Z,8.40
2018-07-21T15:10:46.556Z,6.83
2018-07-21T15:13:16.199Z,6.72
2018-07-21T15:15:44.803Z,6.22
2018-07-21T15:18:13.257Z,5.60
2018-07-21T15:20:41.766Z,6.10
2018-07-21T15:23:14.048Z,4.85
2018-07-21T15:25:44.524Z,5.10
2018-07-21T15:28:13.186Z,5.62
2018-07-21T15:30:43.573Z,5.40
2018-07-21T15:33:12.255Z,5.20
2018-07-21T15:35:41.218Z,5.00
2018-07-21T15:38:10.909Z,5.10
2018-07-21T15:40:38.979Z,4.70
2018-07-21T15:43:07.092Z,4.17
2018-07-21T15:45:35.666Z,4.60
2018-07-21T15:48:03.808Z,4.70
2018-07-21T15:50:32.002Z,5.50
2018-07-21T15:53:00.074Z,5.12
2018-07-21T15:55:28.220Z,5.35
2018-07-21T15:57:56.335Z,5.25
2018-07-21T16:00:24.454Z,5.65
2018-07-21T16:02:52.575Z,6.10
2018-07-21T16:05:20.673Z,6.42
2018-07-21T16:07:48.760Z,6.28
2018-07-21T16:10:16.893Z,6.15
2018-07-21T16:12:45.002Z,6.00
2018-07-21T16:15:13.155Z,6.50
2018-07-21T16:17:41.199Z,6.50
2018-07-21T16:20:09.640Z,7.40
2018-07-21T16:22:37.898Z,7.87
2018-07-21T16:25:06.010Z,7.10
2018-07-21T16:27:34.389Z,7.17
2018-07-21T16:30:02.918Z,7.30
2018-07-21T16:32:31.355Z,7.30
2018-07-21T16:34:59.657Z,6.83
2018-07-21T16:37:28.135Z,6.90
2018-07-21T16:39:56.534Z,7.00
2018-07-21T16:42:24.907Z,7.90
2018-07-21T16:44:53.668Z,7.75
2018-07-21T16:47:22.054Z,8.20
2018-07-21T16:49:50.525Z,8.10
2018-07-21T16:52:18.932Z,8.13
2018-07-21T16:54:47.404Z,6.80
2018-07-21T16:57:15.543Z,7.00
2018-07-21T16:59:43.658Z,6.80
2018-07-21T17:02:11.800Z,6.10
2018-07-21T17:04:40.017Z,5.97
2018-07-21T17:07:08.357Z,6.50
2018-07-21T17:09:36.674Z,6.17
2018-07-21T17:12:04.793Z,6.30
2018-07-21T17:14:32.913Z,5.50
2018-07-21T17:17:01.036Z,5.90
2018-07-21T17:19:29.423Z,6.10
2018-07-21T17:21:57.824Z,6.70
2018-07-21T17:24:25.951Z,6.55
2018-07-21T17:26:54.197Z,7.47
2018-07-21T17:29:22.527Z,6.60
2018-07-21T17:31:50.956Z,6.58
2018-07-21T17:34:19.413Z,7.00
2018-07-21T17:36:47.536Z,6.30
2018-07-21T17:39:15.744Z,7.08
2018-07-21T17:41:43.842Z,7.17
2018-07-21T17:44:12.748Z,7.33
2018-07-21T17:46:41.821Z,7.30
2018-07-21T17:49:10.455Z,6.80
2018-07-21T17:51:38.877Z,6.37
2018-07-21T17:54:07.293Z,7.10
2018-07-21T17:56:35.726Z,6.60
2018-07-21T17:59:04.555Z,6.40
2018-07-21T18:01:32.954Z,6.40
2018-07-21T18:04:01.049Z,6.33
2018-07-21T18:06:29.755Z,5.60
2018-07-21T18:08:58.588Z,6.20
2018-07-21T18:11:27.405Z,6.17
2018-07-21T18:13:56.686Z,5.07
2018-07-21T18:16:25.575Z,5.80
2018-07-21T18:18:54.031Z,4.60
2018-07-21T18:21:22.615Z,5.70
2018-07-21T18:23:51.792Z,5.00
2018-07-21T18:26:20.578Z,5.53
2018-07-21T18:28:49.973Z,5.13
2018-07-21T18:31:18.652Z,5.13
2018-07-21T18:33:47.111Z,4.90
2018-07-21T18:36:15.500Z,5.20
2018-07-21T18:38:43.869Z,5.90
2018-07-21T18:41:12.625Z,8.33
2018-07-21T18:43:42.242Z,6.67
2018-07-21T18:46:11.666Z,6.57
2018-07-21T18:48:40.411Z,5.67
2018-07-21T18:51:09.532Z,6.37
2018-07-21T18:53:38.168Z,6.73
2018-07-21T18:56:06.690Z,5.97
2018-07-21T18:58:35.178Z,6.40
2018-07-21T19:01:03.600Z,6.30
2018-07-21T19:03:32.069Z,7.93
2018-07-21T19:06:00.718Z,7.90
2018-07-21T19:08:34.619Z,6.50
2018-07-21T19:11:03.082Z,6.80
2018-07-21T19:13:31.973Z,7.20
2018-07-21T19:16:05.954Z,7.40
2018-07-21T19:18:34.319Z,6.57
2018-07-21T19:21:08.423Z,7.33
2018-07-21T19:23:36.853Z,7.30
2018-07-21T19:26:10.773Z,7.10
2018-07-21T19:28:39.211Z,6.53
2018-07-21T19:31:07.915Z,7.10
2018-07-21T19:33:36.635Z,7.57
2018-07-21T19:36:05.349Z,7.60
2018-07-21T19:38:34.110Z,7.80
2018-07-21T19:42:06.992Z,8.30
2018-07-21T19:44:35.416Z,7.67
2018-07-21T19:47:04.027Z,10.40
2018-07-21T19:49:32.474Z,10.85
2018-07-21T19:52:01.041Z,9.40
2018-07-21T19:54:30.331Z,10.53
2018-07-21T19:56:58.999Z,11.10
2018-07-21T19:59:27.422Z,10.50
2018-07-21T20:01:56.141Z,9.93
2018-07-21T20:04:24.780Z,9.80
2018-07-21T20:06:53.320Z,11.73
2018-07-21T20:09:21.738Z,11.93
2018-07-21T20:11:50.363Z,12.67
2018-07-21T20:14:19.269Z,12.83
2018-07-21T20:16:48.049Z,17.30
2018-07-21T20:19:16.532Z,17.73
2018-07-21T20:21:45.128Z,16.87
2018-07-21T20:24:13.630Z,18.10
2018-07-21T20:26:42.084Z,17.60
2018-07-21T20:29:10.829Z,15.87
2018-07-21T20:31:39.650Z,16.27
2018-07-21T20:34:08.150Z,13.97
2018-07-21T20:36:36.654Z,12.80
2018-07-21T20:39:07.458Z,11.53
2018-07-21T20:41:36.995Z,13.20
2018-07-21T20:44:05.450Z,12.77
2018-07-21T20:46:36.231Z,12.40
2018-07-21T20:49:04.755Z,13.50
2018-07-21T20:51:33.417Z,13.20
2018-07-21T20:54:02.189Z,14.00
2018-07-21T20:56:31.123Z,13.70
2018-07-21T20:58:59.969Z,12.90
2018-07-21T21:01:28.507Z,13.37
2018-07-21T21:03:57.027Z,12.53
2018-07-21T21:06:25.536Z,17.40
2018-07-21T21:08:54.201Z,15.77
2018-07-21T21:11:23.188Z,16.57
2018-07-21T21:13:52.072Z,16.12
2018-07-21T21:16:20.716Z,13.50
2018-07-21T21:18:49.292Z,14.27
2018-07-21T21:21:17.873Z,16.47
2018-07-21T21:23:46.358Z,14.60
2018-07-21T21:26:14.915Z,15.20
2018-07-21T21:28:43.792Z,16.12
2018-07-21T21:31:12.589Z,14.80
2018-07-21T21:33:41.083Z,12.67
2018-07-21T21:36:09.581Z,13.30
2018-07-21T21:38:38.005Z,12.70
2018-07-21T21:41:06.699Z,13.13
2018-07-21T21:43:35.523Z,13.60
2018-07-21T21:46:04.304Z,13.70
2018-07-21T21:48:32.892Z,14.17
2018-07-21T21:51:02.269Z,14.40
2018-07-21T21:53:31.204Z,13.27
2018-07-21T21:55:59.849Z,13.30
2018-07-21T21:58:29.355Z,14.03
2018-07-21T22:01:08.205Z,13.10
2018-07-21T22:03:36.713Z,13.70
2018-07-21T22:06:05.469Z,12.27
2018-07-21T22:08:34.457Z,12.33
2018-07-21T22:11:03.849Z,12.63
2018-07-21T22:13:32.621Z,12.57
2018-07-21T22:16:01.467Z,11.47
2018-07-21T22:18:30.975Z,13.73
2018-07-21T22:20:59.407Z,13.10
2018-07-21T22:23:27.921Z,13.40
2018-07-21T22:25:58.066Z,12.90
2018-07-21T22:28:26.487Z,15.20
2018-07-21T22:30:55.021Z,13.30
2018-07-21T22:33:23.552Z,12.67
2018-07-21T22:35:51.960Z,13.07
2018-07-21T22:38:20.400Z,13.13
2018-07-21T22:40:48.951Z,13.90
2018-07-21T22:43:17.340Z,14.37
2018-07-21T22:45:45.816Z,12.93
2018-07-21T22:50:41.880Z,13.77
2018-07-21T22:53:10.305Z,14.40
2018-07-21T22:55:38.702Z,13.60
2018-07-21T22:58:07.113Z,13.30
2018-07-21T23:03:03.137Z,15.47
2018-07-21T23:05:31.560Z,15.60
2018-07-21T23:07:59.992Z,15.47
2018-07-21T23:10:28.412Z,15.70
2018-07-21T23:12:56.886Z,16.30
2018-07-21T23:15:25.294Z,15.55
2018-07-21T23:17:53.684Z,16.50
2018-07-21T23:20:22.080Z,16.40
2018-07-21T23:22:50.558Z,16.00
2018-07-21T23:25:18.972Z,16.30
2018-07-21T23:27:47.397Z,16.48
2018-07-21T23:30:15.823Z,15.60
2018-07-21T23:32:43.907Z,15.08
2018-07-21T23:35:12.331Z,15.95
2018-07-21T23:37:40.806Z,14.50
2018-07-21T23:40:09.198Z,14.20
2018-07-21T23:42:37.592Z,14.30
2018-07-21T23:45:06.485Z,13.95
2018-07-21T23:47:34.859Z,14.35
2018-07-21T23:50:03.372Z,14.07
2018-07-21T23:52:31.814Z,14.63
2018-07-21T23:55:00.261Z,14.83
2018-07-21T23:57:28.689Z,14.58
2018-07-21T23:59:57.132Z,15.13
